createdAt,value
2022-12-04T00:01:05.817Z,5.67
2022-12-04T00:03:40.764Z,5.66
2022-12-04T00:06:15.385Z,5.68
2022-12-04T00:08:52.000Z,5.58
2022-12-04T00:11:27.792Z,5.62
2022-12-04T00:14:06.836Z,5.61
2022-12-04T00:16:40.435Z,5.62
2022-12-04T00:19:14.650Z,5.61
2022-12-04T00:21:48.356Z,5.59
2022-12-04T00:24:21.299Z,5.58
2022-12-04T00:26:54.014Z,5.69
2022-12-04T00:29:26.873Z,5.59
2022-12-04T00:31:59.843Z,5.66
2022-12-04T00:34:34.050Z,5.62
2022-12-04T00:37:09.910Z,5.69
2022-12-04T00:39:42.733Z,5.63
2022-12-04T00:42:15.736Z,5.69
2022-12-04T00:44:48.423Z,5.69
2022-12-04T00:47:21.294Z,5.65
2022-12-04T00:49:56.207Z,5.64
2022-12-04T00:52:30.881Z,5.59
2022-12-04T00:55:04.196Z,5.57
2022-12-04T00:57:37.464Z,5.60
2022-12-04T01:00:10.929Z,5.57
2022-12-04T01:02:43.933Z,5.59
2022-12-04T01:05:18.409Z,5.57
2022-12-04T01:07:51.540Z,5.66
2022-12-04T01:10:24.883Z,5.53
2022-12-04T01:12:58.802Z,5.49
2022-12-04T01:15:31.863Z,5.62
2022-12-04T01:18:04.805Z,5.51
2022-12-04T01:20:39.047Z,5.62
2022-12-04T01:23:12.432Z,5.62
2022-12-04T01:25:52.207Z,5.59
2022-12-04T01:28:30.162Z,5.50
2022-12-04T01:31:07.580Z,5.54
2022-12-04T01:33:42.949Z,5.49
2022-12-04T01:36:21.906Z,5.44
2022-12-04T01:38:55.377Z,5.48
2022-12-04T01:41:30.744Z,5.52
2022-12-04T01:44:17.877Z,5.63
2022-12-04T01:46:53.520Z,5.58
2022-12-04T01:49:30.831Z,5.63
2022-12-04T01:52:08.055Z,5.61
2022-12-04T01:54:44.009Z,5.57
2022-12-04T01:57:19.686Z,5.57
2022-12-04T01:59:56.871Z,5.55
2022-12-04T02:02:33.708Z,5.60
2022-12-04T02:05:09.884Z,5.59
2022-12-04T02:07:50.307Z,5.46
2022-12-04T02:10:32.189Z,5.57
2022-12-04T02:13:16.049Z,5.48
2022-12-04T02:15:55.281Z,5.56
2022-12-04T02:18:35.379Z,5.38
2022-12-04T02:21:15.597Z,5.48
2022-12-04T02:24:16.577Z,5.47
2022-12-04T02:26:54.605Z,5.51
2022-12-04T02:29:39.029Z,5.48
2022-12-04T02:32:20.194Z,5.45
2022-12-04T02:34:59.047Z,5.55
2022-12-04T02:37:37.508Z,5.54
2022-12-04T02:40:18.489Z,5.45
2022-12-04T02:42:56.470Z,5.57
2022-12-04T02:45:36.255Z,5.50
2022-12-04T02:48:10.336Z,5.42
2022-12-04T02:50:44.237Z,5.49
2022-12-04T02:53:20.536Z,5.41
2022-12-04T02:55:57.045Z,5.46
2022-12-04T02:58:35.938Z,5.45
2022-12-04T03:01:23.910Z,5.47
2022-12-04T03:04:06.386Z,5.42
2022-12-04T03:06:43.213Z,5.50
2022-12-04T03:09:21.238Z,5.43
2022-12-04T03:11:57.866Z,5.41
2022-12-04T03:14:34.902Z,5.46
2022-12-04T03:17:17.915Z,5.39
2022-12-04T03:19:55.231Z,5.43
2022-12-04T03:22:32.777Z,5.28
2022-12-04T03:25:09.591Z,5.37
2022-12-04T03:27:49.743Z,5.32
2022-12-04T03:30:23.711Z,5.38
2022-12-04T03:33:04.531Z,5.20
2022-12-04T03:35:45.312Z,5.35
2022-12-04T03:38:28.991Z,5.39
2022-12-04T03:41:05.866Z,5.36
2022-12-04T03:43:48.208Z,5.33
2022-12-04T03:46:28.042Z,5.28
2022-12-04T03:49:10.223Z,5.32
2022-12-04T03:51:48.596Z,5.41
2022-12-04T03:54:25.154Z,5.37
2022-12-04T03:57:05.338Z,5.31
2022-12-04T03:59:41.820Z,5.27
2022-12-04T04:02:24.634Z,5.33
2022-12-04T04:05:04.492Z,5.21
2022-12-04T04:07:43.625Z,5.21
2022-12-04T04:10:26.118Z,5.14
2022-12-04T04:13:21.169Z,5.10
2022-12-04T04:16:14.708Z,5.14
2022-12-04T04:19:07.654Z,5.19
2022-12-04T04:22:01.705Z,5.14
2022-12-04T04:24:40.830Z,5.14
2022-12-04T04:27:13.776Z,5.15
2022-12-04T04:29:52.338Z,5.14
2022-12-04T04:32:32.122Z,5.12
2022-12-04T04:35:16.122Z,5.11
2022-12-04T04:37:58.978Z,5.17
2022-12-04T04:40:39.213Z,5.25
2022-12-04T04:43:20.046Z,5.20
2022-12-04T04:45:59.485Z,5.11
2022-12-04T04:48:38.335Z,5.12
2022-12-04T04:51:12.721Z,5.13
2022-12-04T04:53:52.970Z,5.12
2022-12-04T04:56:26.372Z,5.22
2022-12-04T04:59:02.008Z,5.11
2022-12-04T05:01:39.384Z,5.13
2022-12-04T05:04:19.936Z,5.18
2022-12-04T05:06:52.947Z,5.07
2022-12-04T05:09:27.655Z,5.15
2022-12-04T05:12:07.105Z,5.22
2022-12-04T05:14:40.184Z,5.17
2022-12-04T05:17:13.168Z,5.10
2022-12-04T05:19:54.533Z,5.22
2022-12-04T05:22:31.661Z,5.32
2022-12-04T05:25:06.830Z,5.21
2022-12-04T05:27:40.106Z,5.21
2022-12-04T05:30:13.615Z,5.12
2022-12-04T05:32:46.723Z,5.17
2022-12-04T05:35:19.789Z,5.24
2022-12-04T05:37:52.675Z,5.16
2022-12-04T05:40:26.736Z,5.22
2022-12-04T05:42:59.652Z,5.21
2022-12-04T05:45:32.857Z,5.33
2022-12-04T05:48:06.135Z,5.36
2022-12-04T05:50:39.306Z,5.23
2022-12-04T05:53:12.315Z,5.15
2022-12-04T05:55:46.424Z,5.16
2022-12-04T05:58:19.332Z,5.21
2022-12-04T06:00:54.830Z,5.17
2022-12-04T06:03:30.692Z,5.17
2022-12-04T06:06:06.545Z,5.21
2022-12-04T06:08:39.459Z,5.20
2022-12-04T06:11:16.734Z,5.35
2022-12-04T06:13:50.029Z,5.22
2022-12-04T06:16:27.248Z,5.16
2022-12-04T06:19:02.351Z,5.22
2022-12-04T06:21:37.233Z,5.21
2022-12-04T06:24:13.978Z,5.19
2022-12-04T06:27:18.955Z,5.21
2022-12-04T06:29:41.632Z,5.21
2022-12-04T06:32:20.964Z,5.24
2022-12-04T06:34:55.695Z,5.10
2022-12-04T06:37:28.751Z,5.19
2022-12-04T06:40:03.922Z,5.18
2022-12-04T06:42:43.782Z,5.13
2022-12-04T06:45:20.252Z,5.04
2022-12-04T06:47:56.194Z,5.10
2022-12-04T06:50:31.853Z,5.03
2022-12-04T06:53:08.358Z,5.07
2022-12-04T06:55:41.526Z,5.08
2022-12-04T06:58:15.518Z,5.07
2022-12-04T07:00:48.573Z,5.10
2022-12-04T07:03:22.198Z,5.04
2022-12-04T07:05:54.926Z,5.03
2022-12-04T07:08:27.747Z,5.13
2022-12-04T07:11:03.338Z,5.15
2022-12-04T07:13:37.849Z,4.98
2022-12-04T07:16:14.507Z,5.07
2022-12-04T07:18:50.390Z,4.94
2022-12-04T07:21:26.184Z,4.89
2022-12-04T07:24:01.907Z,4.95
2022-12-04T07:26:38.213Z,4.92
2022-12-04T07:29:15.906Z,4.95
2022-12-04T07:31:51.813Z,4.91
2022-12-04T07:34:28.949Z,4.94
2022-12-04T07:37:02.530Z,4.91
2022-12-04T07:39:35.936Z,4.97
2022-12-04T07:42:08.882Z,4.92
2022-12-04T07:44:50.950Z,4.96
2022-12-04T07:47:24.153Z,4.87
2022-12-04T07:49:57.699Z,4.95
2022-12-04T07:52:31.313Z,4.97
2022-12-04T07:55:08.499Z,5.02
2022-12-04T07:57:43.566Z,5.10
2022-12-04T08:00:19.235Z,5.07
2022-12-04T08:02:52.854Z,4.98
2022-12-04T08:05:28.189Z,4.95
2022-12-04T08:08:01.340Z,4.99
2022-12-04T08:10:34.360Z,4.98
2022-12-04T08:13:07.263Z,5.04
2022-12-04T08:15:41.483Z,5.04
2022-12-04T08:18:17.621Z,4.98
2022-12-04T08:20:50.668Z,5.03
2022-12-04T08:23:24.042Z,5.01
2022-12-04T08:26:02.511Z,4.96
2022-12-04T08:28:39.305Z,4.98
2022-12-04T08:31:16.919Z,4.93
2022-12-04T08:33:51.518Z,4.90
2022-12-04T08:36:25.175Z,4.86
2022-12-04T08:39:00.124Z,4.92
2022-12-04T08:41:36.062Z,4.86
2022-12-04T08:44:09.296Z,4.92
2022-12-04T08:46:43.842Z,4.89
2022-12-04T08:49:16.857Z,4.94
2022-12-04T08:51:49.448Z,5.03
2022-12-04T08:54:23.204Z,5.04
2022-12-04T08:56:56.057Z,4.97
2022-12-04T08:59:29.270Z,5.00
2022-12-04T09:02:03.499Z,5.04
2022-12-04T09:04:36.899Z,4.98
2022-12-04T09:07:09.692Z,4.99
2022-12-04T09:09:48.089Z,5.03
2022-12-04T09:12:21.254Z,5.03
2022-12-04T09:14:54.038Z,5.02
2022-12-04T09:17:28.149Z,4.96
2022-12-04T09:20:01.808Z,4.94
2022-12-04T09:22:57.709Z,5.07
2022-12-04T09:25:27.815Z,4.99
2022-12-04T09:28:00.567Z,4.96
2022-12-04T09:30:33.296Z,4.99
2022-12-04T09:33:07.442Z,5.08
2022-12-04T09:35:40.291Z,4.97
2022-12-04T09:38:13.029Z,5.04
2022-12-04T09:40:51.166Z,4.99
2022-12-04T09:43:32.167Z,5.07
2022-12-04T09:46:10.604Z,5.01
2022-12-04T09:48:48.625Z,5.04
2022-12-04T09:51:24.935Z,5.01
2022-12-04T09:54:01.701Z,5.03
2022-12-04T09:56:34.472Z,5.02
2022-12-04T09:59:13.480Z,5.03
2022-12-04T10:01:49.277Z,5.04
2022-12-04T10:04:23.633Z,5.04
2022-12-04T10:07:04.093Z,5.00
2022-12-04T10:09:43.449Z,5.00
2022-12-04T10:12:24.845Z,5.02
2022-12-04T10:15:08.630Z,4.94
2022-12-04T10:18:04.815Z,5.01
2022-12-04T10:20:55.342Z,5.06
2022-12-04T10:23:39.647Z,5.03
2022-12-04T10:26:17.079Z,5.11
2022-12-04T10:28:56.301Z,5.06
2022-12-04T10:31:30.734Z,5.13
2022-12-04T10:34:08.652Z,5.10
2022-12-04T10:36:46.856Z,5.11
2022-12-04T10:39:25.885Z,5.05
2022-12-04T10:42:05.000Z,5.09
2022-12-04T10:44:37.690Z,5.06
2022-12-04T10:47:13.164Z,5.10
2022-12-04T10:49:46.177Z,5.04
2022-12-04T10:52:20.309Z,5.10
2022-12-04T10:54:57.547Z,5.09
2022-12-04T10:57:38.828Z,5.10
2022-12-04T11:00:30.582Z,5.14
2022-12-04T11:03:10.097Z,5.14
2022-12-04T11:05:47.374Z,5.06
2022-12-04T11:08:26.893Z,4.95
2022-12-04T11:11:02.537Z,5.03
2022-12-04T11:13:36.327Z,5.04
2022-12-04T11:16:34.442Z,5.13
2022-12-04T11:19:21.424Z,5.13
2022-12-04T11:21:56.951Z,5.20
2022-12-04T11:24:34.435Z,5.23
2022-12-04T11:27:16.462Z,5.14
2022-12-04T11:29:49.848Z,5.20
2022-12-04T11:32:25.110Z,5.20
2022-12-04T11:35:02.296Z,5.27
2022-12-04T11:37:39.227Z,5.28
2022-12-04T11:40:20.408Z,5.44
2022-12-04T11:43:05.087Z,5.43
2022-12-04T11:45:38.059Z,5.37
2022-12-04T11:48:16.122Z,5.39
2022-12-04T11:50:55.292Z,5.36
2022-12-04T11:53:45.033Z,5.37
2022-12-04T11:56:33.086Z,5.34
2022-12-04T11:59:34.444Z,5.33
2022-12-04T12:02:22.979Z,5.25
2022-12-04T12:05:09.657Z,5.38
2022-12-04T12:07:49.346Z,5.52
2022-12-04T12:10:31.896Z,5.33
2022-12-04T12:13:13.852Z,5.30
2022-12-04T12:15:53.338Z,5.24
2022-12-04T12:18:47.736Z,5.32
2022-12-04T12:21:26.025Z,5.37
2022-12-04T12:24:10.749Z,5.33
2022-12-04T12:26:50.648Z,5.40
2022-12-04T12:29:38.829Z,5.44
2022-12-04T12:32:27.662Z,5.30
2022-12-04T12:35:01.945Z,5.42
2022-12-04T12:37:43.048Z,5.43
2022-12-04T12:40:24.286Z,5.48
2022-12-04T12:43:02.522Z,5.47
2022-12-04T12:45:44.148Z,5.50
2022-12-04T12:48:27.945Z,5.49
2022-12-04T12:51:29.133Z,5.45
2022-12-04T12:54:10.737Z,5.42
2022-12-04T12:56:50.068Z,5.41
2022-12-04T12:59:27.614Z,5.46
2022-12-04T13:02:10.435Z,5.42
2022-12-04T13:04:47.918Z,5.40
2022-12-04T13:07:33.983Z,5.38
2022-12-04T13:10:15.044Z,5.43
2022-12-04T13:12:52.658Z,5.45
2022-12-04T13:15:33.423Z,5.48
2022-12-04T13:18:11.735Z,5.46
2022-12-04T13:20:51.362Z,5.49
2022-12-04T13:23:38.854Z,5.51
2022-12-04T13:26:21.196Z,5.44
2022-12-04T13:29:01.147Z,5.44
2022-12-04T13:31:43.523Z,5.46
2022-12-04T13:34:44.000Z,5.43
2022-12-04T13:37:29.699Z,5.36
2022-12-04T13:40:33.540Z,5.32
2022-12-04T13:43:37.484Z,5.34
2022-12-04T13:46:26.784Z,5.31
2022-12-04T13:49:09.750Z,5.30
2022-12-04T13:51:45.709Z,5.37
2022-12-04T13:54:27.576Z,5.33
2022-12-04T13:57:19.471Z,5.38
2022-12-04T14:00:04.268Z,5.32
2022-12-04T14:02:52.210Z,5.37
2022-12-04T14:05:32.511Z,5.41
2022-12-04T14:08:23.954Z,5.47
2022-12-04T14:11:03.393Z,5.37
2022-12-04T14:13:44.254Z,5.26
2022-12-04T14:16:22.173Z,5.33
2022-12-04T14:18:57.498Z,5.33
2022-12-04T14:21:40.334Z,5.27
2022-12-04T14:24:37.275Z,5.33
2022-12-04T14:27:33.330Z,5.29
2022-12-04T14:30:16.231Z,5.37
2022-12-04T14:32:51.483Z,5.25
2022-12-04T14:35:29.699Z,5.34
2022-12-04T14:38:05.001Z,5.32
2022-12-04T14:40:44.804Z,5.24
2022-12-04T14:43:20.201Z,5.24
2022-12-04T14:45:59.953Z,5.26
2022-12-04T14:48:41.177Z,5.32
2022-12-04T14:51:23.828Z,5.25
2022-12-04T14:54:04.475Z,5.28
2022-12-04T14:56:52.055Z,5.27
2022-12-04T14:59:34.204Z,5.25
2022-12-04T15:02:13.539Z,5.20
2022-12-04T15:04:48.441Z,5.20
2022-12-04T15:07:23.181Z,5.18
2022-12-04T15:10:15.519Z,5.17
2022-12-04T15:12:56.777Z,5.16
2022-12-04T15:15:33.345Z,5.19
2022-12-04T15:18:14.409Z,5.15
2022-12-04T15:20:58.046Z,5.13
2022-12-04T15:23:36.061Z,5.14
2022-12-04T15:26:13.239Z,5.20
2022-12-04T15:28:51.803Z,5.19
2022-12-04T15:31:29.483Z,5.18
2022-12-04T15:34:07.462Z,5.21
2022-12-04T15:36:46.045Z,5.10
2022-12-04T15:39:21.104Z,5.18
2022-12-04T15:42:06.358Z,5.17
2022-12-04T15:44:45.989Z,5.10
2022-12-04T15:47:23.203Z,5.13
2022-12-04T15:49:57.573Z,5.07
2022-12-04T15:52:31.640Z,5.12
2022-12-04T15:55:08.818Z,5.11
2022-12-04T15:57:44.901Z,5.13
2022-12-04T16:00:28.205Z,5.13
2022-12-04T16:03:01.989Z,5.03
2022-12-04T16:05:37.481Z,5.11
2022-12-04T16:08:27.009Z,5.14
2022-12-04T16:11:02.987Z,5.23
2022-12-04T16:13:38.330Z,5.20
2022-12-04T16:16:19.206Z,5.24
2022-12-04T16:18:52.193Z,5.26
2022-12-04T16:21:30.670Z,5.23
2022-12-04T16:24:03.889Z,5.18
2022-12-04T16:26:36.986Z,5.10
2022-12-04T16:29:10.789Z,5.06
2022-12-04T16:31:48.367Z,5.07
2022-12-04T16:34:21.462Z,5.01
2022-12-04T16:37:04.492Z,4.99
2022-12-04T16:39:41.320Z,5.04
2022-12-04T16:42:17.829Z,5.12
2022-12-04T16:44:51.256Z,5.10
2022-12-04T16:47:25.472Z,5.10
2022-12-04T16:49:58.784Z,5.09
2022-12-04T16:52:32.076Z,5.16
2022-12-04T16:55:12.147Z,5.09
2022-12-04T16:57:45.575Z,5.09
2022-12-04T17:00:19.622Z,5.11
2022-12-04T17:02:54.325Z,5.01
2022-12-04T17:05:29.213Z,5.06
2022-12-04T17:08:02.162Z,5.08
2022-12-04T17:10:34.896Z,5.02
2022-12-04T17:13:07.969Z,5.09
2022-12-04T17:15:40.889Z,5.10
2022-12-04T17:18:20.967Z,5.11
2022-12-04T17:20:54.901Z,5.08
2022-12-04T17:23:27.951Z,4.99
2022-12-04T17:26:05.127Z,4.96
2022-12-04T17:28:38.307Z,4.98
2022-12-04T17:31:16.813Z,5.03
2022-12-04T17:33:51.481Z,5.10
2022-12-04T17:36:27.609Z,5.17
2022-12-04T17:39:02.563Z,5.14
2022-12-04T17:41:35.715Z,5.12
2022-12-04T17:44:08.442Z,5.13
2022-12-04T17:46:41.431Z,5.06
2022-12-04T17:49:15.774Z,5.13
2022-12-04T17:51:49.018Z,5.13
2022-12-04T17:54:21.962Z,5.17
2022-12-04T17:56:57.941Z,5.09
2022-12-04T17:59:31.414Z,5.09
2022-12-04T18:02:04.724Z,5.03
2022-12-04T18:04:39.214Z,5.11
2022-12-04T18:07:12.228Z,5.06
2022-12-04T18:09:45.212Z,5.08
2022-12-04T18:12:18.263Z,5.06
2022-12-04T18:14:51.818Z,5.10
2022-12-04T18:17:24.868Z,5.09
2022-12-04T18:20:04.235Z,5.17
2022-12-04T18:22:39.281Z,5.12
2022-12-04T18:25:12.218Z,5.11
2022-12-04T18:27:45.020Z,5.17
2022-12-04T18:30:18.202Z,5.14
2022-12-04T18:32:51.480Z,5.11
2022-12-04T18:35:25.620Z,5.18
2022-12-04T18:37:58.699Z,5.16
2022-12-04T18:40:31.284Z,5.16
2022-12-04T18:43:06.120Z,5.17
2022-12-04T18:45:39.138Z,5.21
2022-12-04T18:48:14.861Z,5.15
2022-12-04T18:50:49.060Z,5.19
2022-12-04T18:53:22.270Z,5.22
2022-12-04T18:55:55.787Z,5.22
2022-12-04T18:58:29.035Z,5.16
2022-12-04T19:01:06.165Z,5.29
2022-12-04T19:03:38.992Z,5.25
2022-12-04T19:06:13.901Z,5.23
2022-12-04T19:08:46.719Z,5.24
2022-12-04T19:11:21.017Z,5.23
2022-12-04T19:13:53.882Z,5.14
2022-12-04T19:16:29.445Z,5.19
2022-12-04T19:19:02.873Z,5.26
2022-12-04T19:21:37.036Z,5.26
2022-12-04T19:24:11.198Z,5.27
2022-12-04T19:26:44.906Z,5.31
2022-12-04T19:29:18.214Z,5.27
2022-12-04T19:31:56.001Z,5.30
2022-12-04T19:34:32.181Z,5.33
2022-12-04T19:37:06.897Z,5.30
2022-12-04T19:39:46.058Z,5.24
2022-12-04T19:42:18.941Z,5.27
2022-12-04T19:44:51.798Z,5.24
2022-12-04T19:47:24.885Z,5.19
2022-12-04T19:49:58.276Z,5.26
2022-12-04T19:52:33.582Z,5.34
2022-12-04T19:55:08.989Z,5.31
2022-12-04T19:57:41.767Z,5.22
2022-12-04T20:00:15.640Z,5.28
2022-12-04T20:02:48.497Z,5.20
2022-12-04T20:05:23.924Z,5.23
2022-12-04T20:10:29.929Z,5.23
2022-12-04T20:13:02.600Z,5.27
2022-12-04T20:15:36.394Z,5.26
2022-12-04T20:18:09.160Z,5.33
2022-12-04T20:20:45.071Z,5.27
2022-12-04T20:23:19.300Z,5.28
2022-12-04T20:25:52.784Z,5.38
2022-12-04T20:28:25.547Z,5.31
2022-12-04T20:30:58.607Z,5.22
2022-12-04T20:33:31.431Z,5.31
2022-12-04T20:36:04.267Z,5.34
2022-12-04T20:38:40.030Z,5.36
2022-12-04T20:41:16.005Z,5.34
2022-12-04T20:43:48.997Z,5.28
2022-12-04T20:46:22.978Z,5.28
2022-12-04T20:48:55.867Z,5.27
2022-12-04T20:51:32.327Z,5.27
2022-12-04T20:54:07.873Z,5.33
2022-12-04T20:56:40.716Z,5.31
2022-12-04T20:59:15.339Z,5.21
2022-12-04T21:01:49.074Z,5.24
2022-12-04T21:04:22.786Z,5.37
2022-12-04T21:06:55.716Z,5.21
2022-12-04T21:09:30.903Z,5.23
2022-12-04T21:12:24.730Z,5.23
2022-12-04T21:15:15.100Z,5.31
2022-12-04T21:17:47.953Z,5.23
2022-12-04T21:20:20.803Z,5.18
2022-12-04T21:22:53.556Z,5.29
2022-12-04T21:25:27.769Z,5.23
2022-12-04T21:28:00.770Z,5.25
2022-12-04T21:30:33.820Z,5.31
2022-12-04T21:33:06.534Z,5.34
2022-12-04T21:35:40.256Z,5.34
2022-12-04T21:38:13.105Z,5.34
2022-12-04T21:40:49.368Z,5.25
2022-12-04T21:43:22.173Z,5.27
2022-12-04T21:46:02.021Z,5.37
2022-12-04T21:48:38.865Z,5.40
2022-12-04T21:51:26.881Z,5.41
2022-12-04T21:54:04.904Z,5.40
2022-12-04T21:56:38.924Z,5.46
2022-12-04T21:59:12.097Z,5.40
2022-12-04T22:01:44.893Z,5.46
2022-12-04T22:04:17.699Z,5.49
2022-12-04T22:06:50.774Z,5.47
2022-12-04T22:09:23.379Z,5.51
2022-12-04T22:11:57.497Z,5.55
2022-12-04T22:14:30.681Z,5.48
2022-12-04T22:17:03.420Z,5.46
2022-12-04T22:19:37.039Z,5.53
2022-12-04T22:22:09.745Z,5.47
2022-12-04T22:24:45.197Z,5.40
2022-12-04T22:27:19.378Z,5.43
2022-12-04T22:29:52.664Z,5.41
2022-12-04T22:32:25.393Z,5.46
2022-12-04T22:34:58.165Z,5.44
2022-12-04T22:37:31.096Z,5.48
2022-12-04T22:40:03.992Z,5.51
2022-12-04T22:42:38.492Z,5.55
2022-12-04T22:45:12.007Z,5.46
2022-12-04T22:47:44.934Z,5.52
2022-12-04T22:50:17.586Z,5.50
2022-12-04T22:52:50.591Z,5.52
2022-12-04T22:55:23.383Z,5.60
2022-12-04T22:57:57.493Z,5.53
2022-12-04T23:00:30.248Z,5.53
2022-12-04T23:03:03.028Z,5.50
2022-12-04T23:05:35.830Z,5.59
2022-12-04T23:08:08.951Z,5.53
2022-12-04T23:10:43.425Z,5.56
2022-12-04T23:13:17.573Z,5.54
2022-12-04T23:15:50.862Z,5.56
2022-12-04T23:18:23.735Z,5.47
2022-12-04T23:21:04.170Z,5.49
2022-12-04T23:23:40.909Z,5.61
2022-12-04T23:26:16.099Z,5.60
2022-12-04T23:28:50.378Z,5.57
2022-12-04T23:31:23.958Z,5.50
2022-12-04T23:33:56.834Z,5.57
2022-12-04T23:36:30.286Z,5.54
2022-12-04T23:39:03.154Z,5.51
2022-12-04T23:41:35.963Z,5.55
2022-12-04T23:44:10.091Z,5.50
2022-12-04T23:46:43.031Z,5.48
2022-12-04T23:49:15.675Z,5.44
2022-12-04T23:51:48.544Z,5.39
2022-12-04T23:54:21.416Z,5.46
2022-12-04T23:56:54.222Z,5.52
2022-12-04T23:59:28.462Z,5.59
